DBSRT EDDN-LGIR
Flight info
| Callsign | DBSRT |
|---|---|
| Flight time | 2h 25m |
| Altitude | 45000 |
| Route | RODIS1C RODIS L604 LAMSI DCT KOMAR DCT EVTON DCT EDALA DCT PETAK DCT DIMIS UL604 TRL UM601 MIL UL617 XAVIS |
| Aircraft | C750/M-SBDE3FGHRWXY/S |
Departure
| Time | 2026-05-05 08:12 |
|---|---|
| Airport | Nuremberg Airport (EDDN) |
Arrival
| Time | 2026-05-05 10:37 |
|---|---|
| Airport | Heraklion International Nikos Kazantzakis Airport (LGIR) |
| Time | Latitude | Longitude | Altitude | Speed | Heading |
|---|---|---|---|---|---|
| 2026-05-05 07:18 | 49.49543 | 11.07139 | 1023 ft | 0 kts | 8° |
| 2026-05-05 08:06 | 49.49551 | 11.07140 | 1050 ft | 5 kts | 6° |
| 2026-05-05 08:06 | 49.49577 | 11.07167 | 1023 ft | 4 kts | 56° |
| 2026-05-05 08:06 | 49.49595 | 11.07203 | 1022 ft | 5 kts | 43° |
| 2026-05-05 08:06 | 49.49626 | 11.07219 | 1022 ft | 5 kts | 0° |
| 2026-05-05 08:07 | 49.49663 | 11.07223 | 1021 ft | 6 kts | 8° |
| 2026-05-05 08:07 | 49.49712 | 11.07221 | 1019 ft | 8 kts | 342° |
| 2026-05-05 08:07 | 49.49740 | 11.07157 | 1018 ft | 8 kts | 279° |
| 2026-05-05 08:07 | 49.49748 | 11.07076 | 1018 ft | 8 kts | 279° |
| 2026-05-05 08:08 | 49.49766 | 11.06907 | 1016 ft | 19 kts | 279° |
| 2026-05-05 08:08 | 49.49783 | 11.06707 | 1016 ft | 18 kts | 277° |
| 2026-05-05 08:08 | 49.49804 | 11.06523 | 1017 ft | 17 kts | 279° |
| 2026-05-05 08:08 | 49.49819 | 11.06343 | 1015 ft | 17 kts | 279° |
| 2026-05-05 08:09 | 49.49838 | 11.06173 | 1016 ft | 15 kts | 280° |
| 2026-05-05 08:09 | 49.49857 | 11.06031 | 1017 ft | 13 kts | 298° |
| 2026-05-05 08:09 | 49.49915 | 11.05959 | 1020 ft | 9 kts | 338° |
| 2026-05-05 08:09 | 49.49934 | 11.05948 | 1021 ft | 0 kts | 339° |
| 2026-05-05 08:11 | 49.49967 | 11.05931 | 1022 ft | 9 kts | 347° |
| 2026-05-05 08:11 | 49.50046 | 11.06035 | 1022 ft | 30 kts | 100° |
| 2026-05-05 08:11 | 49.49989 | 11.06649 | 1021 ft | 101 kts | 98° |
| 2026-05-05 08:11 | 49.49847 | 11.08103 | 1069 ft | 160 kts | 98° |
| 2026-05-05 08:12 | 49.49610 | 11.09907 | 1459 ft | 186 kts | 101° |
| 2026-05-05 08:12 | 49.49401 | 11.11984 | 2078 ft | 203 kts | 95° |
| 2026-05-05 08:12 | 49.49246 | 11.14159 | 3078 ft | 204 kts | 97° |
| 2026-05-05 08:12 | 49.49041 | 11.16302 | 4087 ft | 202 kts | 100° |
| 2026-05-05 08:13 | 49.48822 | 11.18422 | 5023 ft | 204 kts | 100° |
| 2026-05-05 08:13 | 49.48605 | 11.20578 | 5936 ft | 204 kts | 100° |
| 2026-05-05 08:13 | 49.48392 | 11.22740 | 6835 ft | 205 kts | 101° |
| 2026-05-05 08:13 | 49.48174 | 11.24928 | 7732 ft | 208 kts | 100° |
| 2026-05-05 08:14 | 49.48133 | 11.27174 | 8637 ft | 212 kts | 92° |
| 2026-05-05 08:14 | 49.48119 | 11.29449 | 9581 ft | 212 kts | 94° |
| 2026-05-05 08:14 | 49.48091 | 11.31702 | 10450 ft | 210 kts | 95° |
| 2026-05-05 08:14 | 49.48074 | 11.33937 | 11251 ft | 208 kts | 94° |
| 2026-05-05 08:15 | 49.48057 | 11.36158 | 12047 ft | 208 kts | 94° |
| 2026-05-05 08:15 | 49.48036 | 11.38428 | 12653 ft | 217 kts | 94° |
| 2026-05-05 08:15 | 49.48015 | 11.40818 | 13126 ft | 233 kts | 94° |
| 2026-05-05 08:15 | 49.47991 | 11.43453 | 13347 ft | 260 kts | 94° |
| 2026-05-05 08:16 | 49.47966 | 11.46388 | 13530 ft | 286 kts | 93° |
| 2026-05-05 08:16 | 49.47938 | 11.49587 | 13671 ft | 312 kts | 93° |
| 2026-05-05 08:16 | 49.47907 | 11.53009 | 13825 ft | 333 kts | 93° |
| 2026-05-05 08:16 | 49.47876 | 11.56565 | 14439 ft | 337 kts | 93° |
| 2026-05-05 08:17 | 49.47838 | 11.60261 | 14716 ft | 351 kts | 93° |
| 2026-05-05 08:17 | 49.47798 | 11.64015 | 15383 ft | 351 kts | 93° |
| 2026-05-05 08:17 | 49.47760 | 11.67791 | 15966 ft | 355 kts | 93° |
| 2026-05-05 08:17 | 49.47719 | 11.71605 | 16556 ft | 359 kts | 93° |
| 2026-05-05 08:18 | 49.47675 | 11.75458 | 17171 ft | 362 kts | 93° |
| 2026-05-05 08:18 | 49.47630 | 11.79342 | 17827 ft | 365 kts | 93° |
| 2026-05-05 08:18 | 49.47584 | 11.83263 | 18433 ft | 369 kts | 93° |
| 2026-05-05 08:18 | 49.47551 | 11.85933 | 18817 ft | 371 kts | 93° |
| 2026-05-05 08:19 | 49.47500 | 11.89921 | 19399 ft | 374 kts | 93° |
| 2026-05-05 08:19 | 49.47426 | 11.93885 | 19950 ft | 377 kts | 96° |
| 2026-05-05 08:19 | 49.46804 | 11.97784 | 20453 ft | 377 kts | 112° |
| 2026-05-05 08:19 | 49.45902 | 12.01570 | 21093 ft | 379 kts | 112° |
| 2026-05-05 08:20 | 49.45009 | 12.05410 | 21652 ft | 383 kts | 112° |
| 2026-05-05 08:20 | 49.44122 | 12.09295 | 22225 ft | 387 kts | 112° |
| 2026-05-05 08:20 | 49.43214 | 12.13209 | 22789 ft | 390 kts | 112° |
| 2026-05-05 08:20 | 49.42288 | 12.17151 | 23346 ft | 394 kts | 112° |
| 2026-05-05 08:21 | 49.41354 | 12.21134 | 23834 ft | 397 kts | 112° |
| 2026-05-05 08:21 | 49.40420 | 12.25145 | 24306 ft | 400 kts | 112° |
| 2026-05-05 08:21 | 49.39475 | 12.29186 | 24756 ft | 404 kts | 112° |
| 2026-05-05 08:21 | 49.38516 | 12.33261 | 25224 ft | 407 kts | 112° |
| 2026-05-05 08:22 | 49.37551 | 12.37354 | 25689 ft | 410 kts | 112° |
| 2026-05-05 08:22 | 49.36579 | 12.41478 | 26148 ft | 413 kts | 112° |
| 2026-05-05 08:22 | 49.35602 | 12.45624 | 26475 ft | 415 kts | 112° |
| 2026-05-05 08:22 | 49.34622 | 12.49759 | 26889 ft | 418 kts | 112° |
| 2026-05-05 08:23 | 49.33363 | 12.53775 | 27304 ft | 418 kts | 124° |
| 2026-05-05 08:23 | 49.31582 | 12.57269 | 27765 ft | 416 kts | 136° |
| 2026-05-05 08:23 | 49.29545 | 12.60428 | 28225 ft | 418 kts | 137° |
| 2026-05-05 08:23 | 49.27489 | 12.63602 | 28689 ft | 421 kts | 137° |
| 2026-05-05 08:24 | 49.25435 | 12.66804 | 29192 ft | 423 kts | 137° |
| 2026-05-05 08:24 | 49.23359 | 12.70034 | 29643 ft | 426 kts | 137° |
| 2026-05-05 08:24 | 49.21265 | 12.73269 | 30062 ft | 429 kts | 137° |
| 2026-05-05 08:24 | 49.19158 | 12.76519 | 30454 ft | 432 kts | 137° |
| 2026-05-05 08:25 | 49.17037 | 12.79797 | 30850 ft | 434 kts | 137° |
| 2026-05-05 08:25 | 49.14897 | 12.83099 | 31060 ft | 441 kts | 138° |
| 2026-05-05 08:25 | 49.12703 | 12.86474 | 31075 ft | 452 kts | 137° |
| 2026-05-05 08:25 | 49.10486 | 12.89882 | 31089 ft | 463 kts | 137° |
| 2026-05-05 08:26 | 49.08198 | 12.93402 | 31222 ft | 469 kts | 137° |
| 2026-05-05 08:26 | 49.05899 | 12.96935 | 31691 ft | 468 kts | 138° |
| 2026-05-05 08:26 | 49.03610 | 13.00441 | 32176 ft | 466 kts | 138° |
| 2026-05-05 08:26 | 49.01322 | 13.03937 | 32658 ft | 465 kts | 138° |
| 2026-05-05 08:27 | 48.99038 | 13.07426 | 33163 ft | 463 kts | 138° |
| 2026-05-05 08:27 | 48.96773 | 13.10884 | 33710 ft | 460 kts | 138° |
| 2026-05-05 08:27 | 48.94514 | 13.14325 | 34142 ft | 459 kts | 138° |
| 2026-05-05 08:27 | 48.92254 | 13.17762 | 34526 ft | 459 kts | 139° |
| 2026-05-05 08:28 | 48.90021 | 13.21154 | 34914 ft | 459 kts | 139° |
| 2026-05-05 08:28 | 48.87762 | 13.24585 | 35290 ft | 459 kts | 139° |
| 2026-05-05 08:28 | 48.85498 | 13.28012 | 35632 ft | 460 kts | 139° |
| 2026-05-05 08:28 | 48.83227 | 13.31442 | 36026 ft | 460 kts | 139° |
| 2026-05-05 08:29 | 48.80963 | 13.34861 | 36435 ft | 459 kts | 139° |
| 2026-05-05 08:29 | 48.78695 | 13.38282 | 36840 ft | 459 kts | 139° |
| 2026-05-05 08:29 | 48.76434 | 13.41686 | 37243 ft | 458 kts | 139° |
| 2026-05-05 08:30 | 48.71903 | 13.48493 | 38078 ft | 457 kts | 139° |
| 2026-05-05 08:30 | 48.69645 | 13.51881 | 38498 ft | 457 kts | 139° |
| 2026-05-05 08:30 | 48.67385 | 13.55264 | 38821 ft | 457 kts | 139° |
| 2026-05-05 08:30 | 48.65045 | 13.58500 | 39083 ft | 455 kts | 145° |
| 2026-05-05 08:31 | 48.62437 | 13.61170 | 39399 ft | 451 kts | 152° |
| 2026-05-05 08:31 | 48.59783 | 13.63584 | 39711 ft | 451 kts | 153° |
| 2026-05-05 08:31 | 48.57096 | 13.66052 | 40013 ft | 452 kts | 152° |
| 2026-05-05 08:31 | 48.54434 | 13.68603 | 40331 ft | 453 kts | 151° |
| 2026-05-05 08:32 | 48.51772 | 13.71154 | 40657 ft | 454 kts | 151° |
| 2026-05-05 08:32 | 48.49086 | 13.73659 | 40970 ft | 454 kts | 152° |
| 2026-05-05 08:32 | 48.46385 | 13.76163 | 41295 ft | 455 kts | 151° |
| 2026-05-05 08:32 | 48.43704 | 13.78680 | 41645 ft | 455 kts | 151° |
| 2026-05-05 08:33 | 48.41013 | 13.81218 | 41974 ft | 456 kts | 151° |
| 2026-05-05 08:33 | 48.38318 | 13.83738 | 42290 ft | 456 kts | 151° |
| 2026-05-05 08:33 | 48.35617 | 13.86248 | 42608 ft | 457 kts | 151° |
| 2026-05-05 08:33 | 48.32907 | 13.88772 | 42903 ft | 458 kts | 151° |
| 2026-05-05 08:34 | 48.30196 | 13.91303 | 43191 ft | 459 kts | 150° |
| 2026-05-05 08:34 | 48.27517 | 13.93797 | 43491 ft | 460 kts | 150° |
| 2026-05-05 08:34 | 48.24795 | 13.96322 | 43803 ft | 460 kts | 150° |
| 2026-05-05 08:34 | 48.22064 | 13.98854 | 44110 ft | 461 kts | 151° |
| 2026-05-05 08:35 | 48.19335 | 14.01384 | 44438 ft | 461 kts | 150° |
| 2026-05-05 08:35 | 48.16593 | 14.03922 | 44721 ft | 461 kts | 150° |
| 2026-05-05 08:35 | 48.13856 | 14.06451 | 44856 ft | 465 kts | 150° |
| 2026-05-05 08:36 | 48.08261 | 14.11608 | 44845 ft | 477 kts | 150° |
| 2026-05-05 08:36 | 48.02564 | 14.16853 | 44854 ft | 488 kts | 150° |
| 2026-05-05 08:37 | 47.96713 | 14.22219 | 44839 ft | 498 kts | 150° |
| 2026-05-05 08:37 | 47.90766 | 14.27663 | 44837 ft | 504 kts | 150° |
| 2026-05-05 08:38 | 47.84780 | 14.33125 | 44851 ft | 505 kts | 150° |
| 2026-05-05 08:38 | 47.78818 | 14.38551 | 44869 ft | 505 kts | 150° |
| 2026-05-05 08:39 | 47.72812 | 14.44001 | 44875 ft | 505 kts | 150° |
| 2026-05-05 08:39 | 47.66808 | 14.49436 | 44869 ft | 505 kts | 150° |
| 2026-05-05 08:40 | 47.60810 | 14.54850 | 44878 ft | 504 kts | 150° |
| 2026-05-05 08:40 | 47.54786 | 14.60271 | 44886 ft | 507 kts | 150° |
| 2026-05-05 08:41 | 47.48758 | 14.65684 | 44897 ft | 507 kts | 150° |
| 2026-05-05 08:41 | 47.42747 | 14.71063 | 44923 ft | 508 kts | 150° |
| 2026-05-05 08:42 | 47.36691 | 14.76473 | 44927 ft | 510 kts | 152° |
| 2026-05-05 08:42 | 47.30616 | 14.81880 | 44927 ft | 510 kts | 152° |
| 2026-05-05 08:43 | 47.24534 | 14.87283 | 44923 ft | 510 kts | 151° |
| 2026-05-05 08:43 | 47.18455 | 14.92666 | 44936 ft | 510 kts | 152° |
| 2026-05-05 08:44 | 47.12411 | 14.98004 | 44943 ft | 510 kts | 151° |
| 2026-05-05 08:44 | 47.06331 | 15.03362 | 44914 ft | 509 kts | 151° |
| 2026-05-05 08:45 | 47.00241 | 15.08709 | 44914 ft | 509 kts | 151° |
| 2026-05-05 08:45 | 46.94162 | 15.14036 | 44928 ft | 509 kts | 151° |
| 2026-05-05 08:46 | 46.88115 | 15.19318 | 44929 ft | 509 kts | 151° |
| 2026-05-05 08:46 | 46.82023 | 15.24628 | 44925 ft | 510 kts | 151° |
| 2026-05-05 08:47 | 46.75927 | 15.29925 | 44924 ft | 510 kts | 151° |
| 2026-05-05 08:47 | 46.69831 | 15.35211 | 44926 ft | 510 kts | 152° |
| 2026-05-05 08:48 | 46.63723 | 15.40489 | 44946 ft | 511 kts | 151° |
| 2026-05-05 08:48 | 46.57621 | 15.45752 | 44955 ft | 510 kts | 152° |
| 2026-05-05 08:49 | 46.51556 | 15.50967 | 44964 ft | 509 kts | 151° |
| 2026-05-05 08:49 | 46.45437 | 15.56214 | 44965 ft | 512 kts | 151° |
| 2026-05-05 08:50 | 46.39334 | 15.61437 | 44974 ft | 508 kts | 151° |
| 2026-05-05 08:50 | 46.33217 | 15.66654 | 44973 ft | 511 kts | 152° |
| 2026-05-05 08:51 | 46.27092 | 15.71868 | 44977 ft | 507 kts | 151° |
| 2026-05-05 08:51 | 46.21000 | 15.77037 | 44982 ft | 508 kts | 152° |
| 2026-05-05 08:52 | 46.14901 | 15.82201 | 44991 ft | 508 kts | 152° |
| 2026-05-05 08:52 | 46.08827 | 15.87329 | 44993 ft | 509 kts | 152° |
| 2026-05-05 08:53 | 46.02709 | 15.92482 | 44995 ft | 509 kts | 151° |
| 2026-05-05 08:53 | 45.96575 | 15.97634 | 45009 ft | 510 kts | 152° |
| 2026-05-05 08:54 | 45.90445 | 16.02770 | 45010 ft | 509 kts | 152° |
| 2026-05-05 08:54 | 45.84358 | 16.07857 | 45017 ft | 509 kts | 152° |
| 2026-05-05 08:55 | 45.78219 | 16.12973 | 45005 ft | 510 kts | 151° |
| 2026-05-05 08:55 | 45.72082 | 16.18077 | 45008 ft | 510 kts | 152° |
| 2026-05-05 08:56 | 45.65943 | 16.23166 | 44997 ft | 509 kts | 152° |
| 2026-05-05 08:56 | 45.59832 | 16.28221 | 44997 ft | 510 kts | 152° |
| 2026-05-05 08:57 | 45.53687 | 16.33290 | 45011 ft | 510 kts | 152° |
| 2026-05-05 08:57 | 45.47540 | 16.38348 | 45015 ft | 510 kts | 152° |
| 2026-05-05 08:58 | 45.41390 | 16.43397 | 45019 ft | 510 kts | 152° |
| 2026-05-05 08:58 | 45.35240 | 16.48432 | 45008 ft | 510 kts | 152° |
| 2026-05-05 08:59 | 45.29118 | 16.53432 | 45006 ft | 510 kts | 152° |
| 2026-05-05 08:59 | 45.22953 | 16.58454 | 45004 ft | 510 kts | 152° |
| 2026-05-05 09:00 | 45.16794 | 16.63459 | 44997 ft | 510 kts | 152° |
| 2026-05-05 09:00 | 45.10623 | 16.68460 | 45003 ft | 510 kts | 152° |
| 2026-05-05 09:01 | 45.04497 | 16.73413 | 45007 ft | 511 kts | 152° |
| 2026-05-05 09:01 | 44.98324 | 16.78391 | 45000 ft | 510 kts | 152° |
| 2026-05-05 09:02 | 44.91977 | 16.82865 | 45009 ft | 509 kts | 158° |
| 2026-05-05 09:02 | 44.85464 | 16.86799 | 45011 ft | 510 kts | 158° |
| 2026-05-05 09:03 | 44.78989 | 16.90883 | 45012 ft | 509 kts | 158° |
| 2026-05-05 09:03 | 44.72494 | 16.94889 | 45005 ft | 510 kts | 156° |
| 2026-05-05 09:04 | 44.66622 | 17.00437 | 45014 ft | 515 kts | 142° |
| 2026-05-05 09:04 | 44.61122 | 17.06879 | 45023 ft | 515 kts | 143° |
| 2026-05-05 09:05 | 44.55420 | 17.12951 | 45024 ft | 514 kts | 143° |
| 2026-05-05 09:05 | 44.49835 | 17.19264 | 45031 ft | 515 kts | 143° |
| 2026-05-05 09:06 | 44.44160 | 17.25416 | 45024 ft | 514 kts | 143° |
| 2026-05-05 09:06 | 44.38553 | 17.31625 | 45029 ft | 514 kts | 143° |
| 2026-05-05 09:07 | 44.32943 | 17.37738 | 45033 ft | 514 kts | 143° |
| 2026-05-05 09:07 | 44.27300 | 17.43913 | 45040 ft | 513 kts | 144° |
| 2026-05-05 09:08 | 44.21601 | 17.49877 | 45024 ft | 509 kts | 150° |
| 2026-05-05 09:08 | 44.15409 | 17.54638 | 45070 ft | 510 kts | 154° |
| 2026-05-05 09:09 | 44.10243 | 17.58638 | 45061 ft | 512 kts | 152° |
| 2026-05-05 09:09 | 44.04033 | 17.63501 | 45077 ft | 512 kts | 153° |
| 2026-05-05 09:10 | 43.97775 | 17.68289 | 45076 ft | 513 kts | 152° |
| 2026-05-05 09:10 | 43.91539 | 17.73133 | 45070 ft | 513 kts | 153° |
| 2026-05-05 09:11 | 43.85282 | 17.77916 | 45080 ft | 513 kts | 153° |
| 2026-05-05 09:11 | 43.79039 | 17.82724 | 45085 ft | 513 kts | 153° |
| 2026-05-05 09:12 | 43.72815 | 17.87473 | 45083 ft | 514 kts | 153° |
| 2026-05-05 09:12 | 43.66554 | 17.92261 | 45086 ft | 515 kts | 153° |
| 2026-05-05 09:13 | 43.60273 | 17.97039 | 45100 ft | 515 kts | 153° |
| 2026-05-05 09:13 | 43.53995 | 18.01810 | 45099 ft | 515 kts | 153° |
| 2026-05-05 09:14 | 43.47698 | 18.06581 | 45107 ft | 516 kts | 153° |
| 2026-05-05 09:14 | 43.41399 | 18.11344 | 45101 ft | 517 kts | 153° |
| 2026-05-05 09:15 | 43.35089 | 18.16102 | 45082 ft | 517 kts | 153° |
| 2026-05-05 09:15 | 43.28785 | 18.20843 | 45121 ft | 517 kts | 153° |
| 2026-05-05 09:16 | 43.22512 | 18.25556 | 45119 ft | 516 kts | 153° |
| 2026-05-05 09:16 | 43.16192 | 18.30286 | 45121 ft | 517 kts | 153° |
| 2026-05-05 09:17 | 43.09880 | 18.35003 | 45105 ft | 517 kts | 153° |
| 2026-05-05 09:17 | 43.03565 | 18.39708 | 45108 ft | 517 kts | 153° |
| 2026-05-05 09:18 | 42.97268 | 18.44391 | 45109 ft | 518 kts | 153° |
| 2026-05-05 09:18 | 42.90926 | 18.49095 | 45114 ft | 518 kts | 153° |
| 2026-05-05 09:19 | 42.84578 | 18.53793 | 45123 ft | 518 kts | 153° |
| 2026-05-05 09:19 | 42.78232 | 18.58478 | 45126 ft | 519 kts | 153° |
| 2026-05-05 09:20 | 42.71882 | 18.63155 | 45121 ft | 519 kts | 153° |
| 2026-05-05 09:20 | 42.65576 | 18.67789 | 45126 ft | 519 kts | 153° |
| 2026-05-05 09:21 | 42.59224 | 18.72446 | 45127 ft | 518 kts | 153° |
| 2026-05-05 09:21 | 42.52867 | 18.77095 | 45131 ft | 519 kts | 153° |
| 2026-05-05 09:22 | 42.46507 | 18.81735 | 45135 ft | 520 kts | 153° |
| 2026-05-05 09:22 | 42.40134 | 18.86376 | 45133 ft | 520 kts | 153° |
| 2026-05-05 09:23 | 42.33754 | 18.91010 | 45135 ft | 520 kts | 153° |
| 2026-05-05 09:23 | 42.27379 | 18.95630 | 45133 ft | 520 kts | 153° |
| 2026-05-05 09:24 | 42.21032 | 19.00218 | 45143 ft | 520 kts | 153° |
| 2026-05-05 09:24 | 42.14639 | 19.04830 | 45144 ft | 520 kts | 153° |
| 2026-05-05 09:25 | 42.08256 | 19.09423 | 45138 ft | 520 kts | 153° |
| 2026-05-05 09:25 | 42.01870 | 19.14008 | 45141 ft | 521 kts | 153° |
| 2026-05-05 09:26 | 41.95467 | 19.18594 | 45125 ft | 522 kts | 154° |
| 2026-05-05 09:26 | 41.89076 | 19.23163 | 45125 ft | 522 kts | 153° |
| 2026-05-05 09:27 | 41.82664 | 19.27735 | 45131 ft | 522 kts | 154° |
| 2026-05-05 09:27 | 41.76274 | 19.32352 | 45126 ft | 522 kts | 151° |
| 2026-05-05 09:28 | 41.69974 | 19.37245 | 45137 ft | 523 kts | 152° |
| 2026-05-05 09:28 | 41.63670 | 19.42100 | 45153 ft | 523 kts | 151° |
| 2026-05-05 09:29 | 41.57366 | 19.46965 | 45148 ft | 524 kts | 152° |
| 2026-05-05 09:29 | 41.51041 | 19.51821 | 45137 ft | 524 kts | 152° |
| 2026-05-05 09:30 | 41.44757 | 19.56645 | 45135 ft | 524 kts | 152° |
| 2026-05-05 09:30 | 41.38426 | 19.61487 | 45131 ft | 524 kts | 152° |
| 2026-05-05 09:31 | 41.32095 | 19.66322 | 45131 ft | 524 kts | 152° |
| 2026-05-05 09:31 | 41.25744 | 19.71159 | 45125 ft | 525 kts | 152° |
| 2026-05-05 09:32 | 41.19410 | 19.75973 | 45127 ft | 525 kts | 152° |
| 2026-05-05 09:32 | 41.13071 | 19.80781 | 45130 ft | 525 kts | 152° |
| 2026-05-05 09:33 | 41.06710 | 19.85593 | 45129 ft | 526 kts | 152° |
| 2026-05-05 09:33 | 41.00344 | 19.90400 | 45118 ft | 527 kts | 152° |
| 2026-05-05 09:34 | 40.93977 | 19.95195 | 45110 ft | 527 kts | 152° |
| 2026-05-05 09:34 | 40.87610 | 19.99980 | 45112 ft | 527 kts | 152° |
| 2026-05-05 09:35 | 40.81283 | 20.04724 | 45117 ft | 527 kts | 152° |
| 2026-05-05 09:35 | 40.71711 | 20.11883 | 45136 ft | 527 kts | 152° |
| 2026-05-05 09:36 | 40.65315 | 20.16651 | 45102 ft | 528 kts | 152° |
| 2026-05-05 09:36 | 40.58917 | 20.21412 | 45105 ft | 529 kts | 152° |
| 2026-05-05 09:37 | 40.52512 | 20.26167 | 45119 ft | 528 kts | 152° |
| 2026-05-05 09:37 | 40.46103 | 20.30915 | 45124 ft | 528 kts | 152° |
| 2026-05-05 09:38 | 40.39694 | 20.35652 | 45114 ft | 528 kts | 152° |
| 2026-05-05 09:38 | 40.33329 | 20.40346 | 45114 ft | 529 kts | 152° |
| 2026-05-05 09:39 | 40.26898 | 20.45077 | 45114 ft | 530 kts | 152° |
| 2026-05-05 09:39 | 40.20457 | 20.49807 | 45120 ft | 532 kts | 152° |
| 2026-05-05 09:40 | 40.13995 | 20.54542 | 45114 ft | 532 kts | 152° |
| 2026-05-05 09:40 | 40.07516 | 20.59269 | 45109 ft | 533 kts | 153° |
| 2026-05-05 09:41 | 40.00870 | 20.63387 | 45117 ft | 531 kts | 158° |
| 2026-05-05 09:41 | 39.94165 | 20.67447 | 45145 ft | 532 kts | 156° |
| 2026-05-05 09:42 | 39.87465 | 20.71559 | 45126 ft | 531 kts | 157° |
| 2026-05-05 09:42 | 39.80762 | 20.75602 | 45148 ft | 531 kts | 157° |
| 2026-05-05 09:43 | 39.74064 | 20.79685 | 45152 ft | 531 kts | 157° |
| 2026-05-05 09:43 | 39.67402 | 20.83884 | 45150 ft | 534 kts | 154° |
| 2026-05-05 09:44 | 39.60835 | 20.88433 | 45152 ft | 535 kts | 154° |
| 2026-05-05 09:44 | 39.54236 | 20.92907 | 45148 ft | 535 kts | 154° |
| 2026-05-05 09:45 | 39.47696 | 20.97386 | 45150 ft | 535 kts | 154° |
| 2026-05-05 09:45 | 39.41107 | 21.01857 | 45143 ft | 534 kts | 154° |
| 2026-05-05 09:46 | 39.34532 | 21.06324 | 45138 ft | 535 kts | 154° |
| 2026-05-05 09:46 | 39.27949 | 21.10783 | 45142 ft | 534 kts | 154° |
| 2026-05-05 09:47 | 39.21366 | 21.15230 | 45142 ft | 535 kts | 154° |
| 2026-05-05 09:47 | 39.14753 | 21.19693 | 45126 ft | 537 kts | 154° |
| 2026-05-05 09:48 | 39.08134 | 21.24145 | 45135 ft | 536 kts | 154° |
| 2026-05-05 09:48 | 39.01560 | 21.28562 | 45128 ft | 537 kts | 154° |
| 2026-05-05 09:49 | 38.94931 | 21.33003 | 45131 ft | 537 kts | 155° |
| 2026-05-05 09:49 | 38.88314 | 21.37429 | 45128 ft | 536 kts | 155° |
| 2026-05-05 09:50 | 38.81691 | 21.41849 | 45128 ft | 534 kts | 155° |
| 2026-05-05 09:50 | 38.75119 | 21.46224 | 45138 ft | 536 kts | 155° |
| 2026-05-05 09:51 | 38.68497 | 21.50625 | 45137 ft | 536 kts | 155° |
| 2026-05-05 09:51 | 38.61872 | 21.55021 | 45131 ft | 536 kts | 155° |
| 2026-05-05 09:52 | 38.55241 | 21.59410 | 45139 ft | 536 kts | 155° |
| 2026-05-05 09:52 | 38.48608 | 21.63792 | 45148 ft | 536 kts | 155° |
| 2026-05-05 09:53 | 38.41967 | 21.68169 | 45151 ft | 536 kts | 155° |
| 2026-05-05 09:53 | 38.35335 | 21.72532 | 45140 ft | 536 kts | 155° |
| 2026-05-05 09:54 | 38.28701 | 21.76888 | 45151 ft | 536 kts | 155° |
| 2026-05-05 09:54 | 38.22105 | 21.81208 | 45143 ft | 538 kts | 155° |
| 2026-05-05 09:55 | 38.15428 | 21.85574 | 45133 ft | 539 kts | 155° |
| 2026-05-05 09:55 | 38.08742 | 21.89936 | 45137 ft | 539 kts | 155° |
| 2026-05-05 09:56 | 38.02066 | 21.94282 | 45127 ft | 539 kts | 155° |
| 2026-05-05 09:56 | 37.95433 | 21.98593 | 45108 ft | 536 kts | 155° |
| 2026-05-05 09:57 | 37.88771 | 22.02910 | 45127 ft | 538 kts | 155° |
| 2026-05-05 09:57 | 37.82093 | 22.07233 | 45124 ft | 539 kts | 155° |
| 2026-05-05 09:58 | 37.75418 | 22.11543 | 45134 ft | 539 kts | 155° |
| 2026-05-05 09:58 | 37.69859 | 22.15126 | 45136 ft | 540 kts | 155° |
| 2026-05-05 09:59 | 37.63151 | 22.19442 | 45129 ft | 541 kts | 155° |
| 2026-05-05 09:59 | 37.56447 | 22.23752 | 45099 ft | 540 kts | 155° |
| 2026-05-05 10:00 | 37.49732 | 22.28044 | 45107 ft | 540 kts | 155° |
| 2026-05-05 10:00 | 37.43417 | 22.33118 | 45110 ft | 546 kts | 141° |
| 2026-05-05 10:01 | 37.38385 | 22.40261 | 45143 ft | 546 kts | 123° |
| 2026-05-05 10:01 | 37.35125 | 22.48866 | 45173 ft | 548 kts | 107° |
| 2026-05-05 10:02 | 37.33186 | 22.58130 | 45142 ft | 548 kts | 102° |
| 2026-05-05 10:02 | 37.30942 | 22.67286 | 45114 ft | 549 kts | 110° |
| 2026-05-05 10:03 | 37.27991 | 22.76133 | 45116 ft | 549 kts | 111° |
| 2026-05-05 10:03 | 37.25506 | 22.85143 | 45124 ft | 549 kts | 107° |
| 2026-05-05 10:04 | 37.22776 | 22.94116 | 45122 ft | 550 kts | 110° |
| 2026-05-05 10:04 | 37.20139 | 23.03127 | 45136 ft | 550 kts | 108° |
| 2026-05-05 10:05 | 37.17485 | 23.12056 | 44538 ft | 537 kts | 110° |
| 2026-05-05 10:05 | 37.16176 | 23.16343 | 43805 ft | 526 kts | 109° |
| 2026-05-05 10:05 | 37.14921 | 23.20599 | 43124 ft | 515 kts | 108° |
| 2026-05-05 10:06 | 37.13694 | 23.24787 | 42468 ft | 505 kts | 108° |
| 2026-05-05 10:06 | 37.12464 | 23.28878 | 41845 ft | 500 kts | 109° |
| 2026-05-05 10:06 | 37.09969 | 23.37144 | 41802 ft | 506 kts | 108° |
| 2026-05-05 10:07 | 37.08745 | 23.41235 | 41421 ft | 496 kts | 108° |
| 2026-05-05 10:07 | 37.07523 | 23.45290 | 40994 ft | 499 kts | 108° |
| 2026-05-05 10:07 | 37.06308 | 23.49308 | 40562 ft | 500 kts | 108° |
| 2026-05-05 10:07 | 37.05074 | 23.53385 | 40133 ft | 501 kts | 108° |
| 2026-05-05 10:08 | 37.03841 | 23.57463 | 39686 ft | 501 kts | 108° |
| 2026-05-05 10:08 | 37.02605 | 23.61544 | 39250 ft | 502 kts | 107° |
| 2026-05-05 10:08 | 37.01365 | 23.65624 | 38813 ft | 502 kts | 107° |
| 2026-05-05 10:08 | 37.00123 | 23.69707 | 38310 ft | 502 kts | 107° |
| 2026-05-05 10:09 | 36.98879 | 23.73795 | 37871 ft | 503 kts | 107° |
| 2026-05-05 10:09 | 36.97629 | 23.77896 | 37436 ft | 506 kts | 107° |
| 2026-05-05 10:09 | 36.96371 | 23.82014 | 36987 ft | 506 kts | 107° |
| 2026-05-05 10:09 | 36.95109 | 23.86137 | 36541 ft | 506 kts | 107° |
| 2026-05-05 10:10 | 36.93864 | 23.90205 | 36099 ft | 507 kts | 107° |
| 2026-05-05 10:10 | 36.92600 | 23.94326 | 35655 ft | 507 kts | 107° |
| 2026-05-05 10:10 | 36.91336 | 23.98440 | 35212 ft | 507 kts | 108° |
| 2026-05-05 10:10 | 36.90099 | 24.02444 | 35119 ft | 479 kts | 107° |
| 2026-05-05 10:11 | 36.88922 | 24.06262 | 35112 ft | 467 kts | 107° |
| 2026-05-05 10:11 | 36.87766 | 24.10042 | 35096 ft | 467 kts | 107° |
| 2026-05-05 10:11 | 36.86578 | 24.13924 | 34729 ft | 488 kts | 108° |
| 2026-05-05 10:11 | 36.85354 | 24.17874 | 34277 ft | 497 kts | 108° |
| 2026-05-05 10:12 | 36.84093 | 24.21918 | 33754 ft | 502 kts | 108° |
| 2026-05-05 10:12 | 36.82829 | 24.26002 | 33255 ft | 505 kts | 108° |
| 2026-05-05 10:12 | 36.81564 | 24.30099 | 32760 ft | 506 kts | 108° |
| 2026-05-05 10:12 | 36.80289 | 24.34201 | 32265 ft | 507 kts | 108° |
| 2026-05-05 10:13 | 36.79005 | 24.38315 | 31795 ft | 508 kts | 108° |
| 2026-05-05 10:13 | 36.77724 | 24.42425 | 31286 ft | 508 kts | 108° |
| 2026-05-05 10:13 | 36.76445 | 24.46534 | 30777 ft | 510 kts | 108° |
| 2026-05-05 10:13 | 36.74977 | 24.50494 | 30228 ft | 511 kts | 118° |
| 2026-05-05 10:14 | 36.72749 | 24.53925 | 29698 ft | 510 kts | 134° |
| 2026-05-05 10:14 | 36.70066 | 24.56790 | 29242 ft | 507 kts | 140° |
| 2026-05-05 10:14 | 36.67337 | 24.59533 | 28756 ft | 502 kts | 141° |
| 2026-05-05 10:14 | 36.64620 | 24.62255 | 28263 ft | 497 kts | 140° |
| 2026-05-05 10:15 | 36.61963 | 24.64982 | 27771 ft | 493 kts | 140° |
| 2026-05-05 10:15 | 36.59332 | 24.67694 | 27291 ft | 489 kts | 140° |
| 2026-05-05 10:15 | 36.56708 | 24.70354 | 26815 ft | 484 kts | 141° |
| 2026-05-05 10:15 | 36.54096 | 24.72983 | 26345 ft | 480 kts | 141° |
| 2026-05-05 10:16 | 36.51523 | 24.75599 | 25852 ft | 476 kts | 140° |
| 2026-05-05 10:16 | 36.48977 | 24.78195 | 25362 ft | 471 kts | 140° |
| 2026-05-05 10:16 | 36.46450 | 24.80755 | 24920 ft | 467 kts | 141° |
| 2026-05-05 10:16 | 36.43941 | 24.83286 | 24484 ft | 463 kts | 141° |
| 2026-05-05 10:17 | 36.41446 | 24.85809 | 24044 ft | 463 kts | 140° |
| 2026-05-05 10:17 | 36.38990 | 24.88295 | 23592 ft | 458 kts | 140° |
| 2026-05-05 10:17 | 36.36532 | 24.90779 | 23124 ft | 454 kts | 141° |
| 2026-05-05 10:17 | 36.34085 | 24.93245 | 22674 ft | 450 kts | 141° |
| 2026-05-05 10:18 | 36.31662 | 24.95687 | 22235 ft | 447 kts | 141° |
| 2026-05-05 10:18 | 36.29257 | 24.98112 | 21799 ft | 444 kts | 141° |
| 2026-05-05 10:18 | 36.26866 | 25.00518 | 21368 ft | 440 kts | 141° |
| 2026-05-05 10:18 | 36.24517 | 25.02880 | 20941 ft | 425 kts | 141° |
| 2026-05-05 10:19 | 36.22250 | 25.05158 | 20522 ft | 424 kts | 141° |
| 2026-05-05 10:19 | 36.19957 | 25.07459 | 20108 ft | 422 kts | 141° |
| 2026-05-05 10:19 | 36.17682 | 25.09742 | 19698 ft | 420 kts | 141° |
| 2026-05-05 10:19 | 36.15415 | 25.12015 | 19289 ft | 418 kts | 141° |
| 2026-05-05 10:20 | 36.13158 | 25.14275 | 18882 ft | 415 kts | 141° |
| 2026-05-05 10:20 | 36.10917 | 25.16519 | 18475 ft | 413 kts | 141° |
| 2026-05-05 10:20 | 36.08683 | 25.18753 | 18042 ft | 411 kts | 141° |
| 2026-05-05 10:20 | 36.06465 | 25.20970 | 17637 ft | 409 kts | 141° |
| 2026-05-05 10:21 | 36.04253 | 25.23180 | 17234 ft | 408 kts | 141° |
| 2026-05-05 10:21 | 36.02052 | 25.25376 | 16838 ft | 406 kts | 141° |
| 2026-05-05 10:21 | 35.99886 | 25.27535 | 16447 ft | 404 kts | 141° |
| 2026-05-05 10:21 | 35.97672 | 25.29742 | 16048 ft | 403 kts | 141° |
| 2026-05-05 10:22 | 35.95528 | 25.31878 | 15664 ft | 400 kts | 140° |
| 2026-05-05 10:22 | 35.93418 | 25.33976 | 15280 ft | 379 kts | 140° |
| 2026-05-05 10:22 | 35.91368 | 25.36013 | 14561 ft | 378 kts | 140° |
| 2026-05-05 10:22 | 35.89341 | 25.38027 | 13840 ft | 370 kts | 140° |
| 2026-05-05 10:23 | 35.87346 | 25.40009 | 13308 ft | 365 kts | 140° |
| 2026-05-05 10:23 | 35.85377 | 25.41963 | 12840 ft | 362 kts | 140° |
| 2026-05-05 10:23 | 35.83422 | 25.43900 | 12375 ft | 358 kts | 140° |
| 2026-05-05 10:23 | 35.81487 | 25.45818 | 11927 ft | 356 kts | 140° |
| 2026-05-05 10:24 | 35.79558 | 25.47728 | 11475 ft | 353 kts | 140° |
| 2026-05-05 10:24 | 35.77674 | 25.49593 | 11034 ft | 351 kts | 140° |
| 2026-05-05 10:24 | 35.75792 | 25.51453 | 10592 ft | 338 kts | 139° |
| 2026-05-05 10:24 | 35.74005 | 25.53216 | 10163 ft | 321 kts | 139° |
| 2026-05-05 10:25 | 35.72288 | 25.54914 | 9733 ft | 312 kts | 139° |
| 2026-05-05 10:25 | 35.70609 | 25.56573 | 9336 ft | 308 kts | 139° |
| 2026-05-05 10:25 | 35.68948 | 25.58212 | 8969 ft | 304 kts | 139° |
| 2026-05-05 10:25 | 35.67305 | 25.59833 | 8599 ft | 302 kts | 139° |
| 2026-05-05 10:26 | 35.65655 | 25.61411 | 8220 ft | 300 kts | 143° |
| 2026-05-05 10:26 | 35.63700 | 25.62301 | 7782 ft | 301 kts | 172° |
| 2026-05-05 10:26 | 35.61632 | 25.62083 | 7379 ft | 297 kts | 198° |
| 2026-05-05 10:26 | 35.59883 | 25.60875 | 7014 ft | 290 kts | 224° |
| 2026-05-05 10:27 | 35.58550 | 25.59054 | 6689 ft | 287 kts | 234° |
| 2026-05-05 10:27 | 35.57286 | 25.57165 | 6330 ft | 285 kts | 234° |
| 2026-05-05 10:27 | 35.56027 | 25.55304 | 5959 ft | 282 kts | 233° |
| 2026-05-05 10:27 | 35.54774 | 25.53468 | 5603 ft | 279 kts | 233° |
| 2026-05-05 10:28 | 35.53532 | 25.51646 | 5253 ft | 276 kts | 234° |
| 2026-05-05 10:28 | 35.52313 | 25.49853 | 4906 ft | 268 kts | 234° |
| 2026-05-05 10:28 | 35.51144 | 25.48141 | 4577 ft | 254 kts | 234° |
| 2026-05-05 10:28 | 35.50036 | 25.46515 | 4278 ft | 243 kts | 234° |
| 2026-05-05 10:29 | 35.48976 | 25.44958 | 3988 ft | 233 kts | 234° |
| 2026-05-05 10:29 | 35.47946 | 25.43445 | 3724 ft | 228 kts | 234° |
| 2026-05-05 10:29 | 35.46944 | 25.41977 | 3449 ft | 221 kts | 234° |
| 2026-05-05 10:29 | 35.45894 | 25.40643 | 3136 ft | 218 kts | 220° |
| 2026-05-05 10:30 | 35.44473 | 25.40079 | 2949 ft | 209 kts | 187° |
| 2026-05-05 10:30 | 35.43112 | 25.40390 | 2980 ft | 198 kts | 158° |
| 2026-05-05 10:30 | 35.41914 | 25.41198 | 3010 ft | 196 kts | 152° |
| 2026-05-05 10:30 | 35.40746 | 25.41990 | 3007 ft | 194 kts | 153° |
| 2026-05-05 10:31 | 35.39574 | 25.42789 | 3011 ft | 193 kts | 152° |
| 2026-05-05 10:31 | 35.38406 | 25.43571 | 3000 ft | 190 kts | 155° |
| 2026-05-05 10:31 | 35.37134 | 25.43801 | 2983 ft | 184 kts | 189° |
| 2026-05-05 10:31 | 35.35965 | 25.43255 | 2985 ft | 179 kts | 218° |
| 2026-05-05 10:32 | 35.35169 | 25.42128 | 2990 ft | 173 kts | 245° |
| 2026-05-05 10:32 | 35.34664 | 25.40795 | 3015 ft | 173 kts | 249° |
| 2026-05-05 10:32 | 35.34142 | 25.39459 | 3012 ft | 174 kts | 248° |
| 2026-05-05 10:32 | 35.33618 | 25.38108 | 2969 ft | 177 kts | 248° |
| 2026-05-05 10:33 | 35.33092 | 25.36773 | 3020 ft | 172 kts | 249° |
| 2026-05-05 10:33 | 35.32769 | 25.35386 | 2953 ft | 170 kts | 270° |
| 2026-05-05 10:33 | 35.32873 | 25.33957 | 2805 ft | 168 kts | 278° |
| 2026-05-05 10:33 | 35.32971 | 25.32558 | 2519 ft | 166 kts | 276° |
| 2026-05-05 10:34 | 35.33062 | 25.31174 | 2281 ft | 165 kts | 278° |
| 2026-05-05 10:34 | 35.33163 | 25.29795 | 2044 ft | 162 kts | 278° |
| 2026-05-05 10:34 | 35.33243 | 25.28410 | 1795 ft | 161 kts | 276° |
| 2026-05-05 10:34 | 35.33339 | 25.27060 | 1535 ft | 148 kts | 279° |
| 2026-05-05 10:35 | 35.33423 | 25.25919 | 1320 ft | 123 kts | 280° |
| 2026-05-05 10:35 | 35.33496 | 25.24921 | 1145 ft | 115 kts | 281° |
| 2026-05-05 10:35 | 35.33569 | 25.23960 | 926 ft | 111 kts | 281° |
| 2026-05-05 10:35 | 35.33619 | 25.23037 | 667 ft | 108 kts | 275° |
| 2026-05-05 10:36 | 35.33678 | 25.22138 | 490 ft | 103 kts | 278° |
| 2026-05-05 10:36 | 35.33741 | 25.21269 | 397 ft | 102 kts | 280° |
| 2026-05-05 10:36 | 35.33812 | 25.20394 | 335 ft | 102 kts | 279° |
| 2026-05-05 10:36 | 35.33865 | 25.19509 | 203 ft | 105 kts | 279° |
| 2026-05-05 10:37 | 35.33936 | 25.18625 | 86 ft | 98 kts | 278° |
| 2026-05-05 10:37 | 35.33981 | 25.17943 | 88 ft | 52 kts | 275° |
| 2026-05-05 10:37 | 35.34007 | 25.17541 | 87 ft | 40 kts | 274° |
| 2026-05-05 10:37 | 35.34024 | 25.17286 | 85 ft | 23 kts | 272° |
| 2026-05-05 10:38 | 35.33998 | 25.17118 | 87 ft | 14 kts | 244° |
| 2026-05-05 10:38 | 35.33988 | 25.17093 | 86 ft | 0 kts | 244° |
| 2026-05-05 10:38 | 35.33973 | 25.17061 | 86 ft | 6 kts | 229° |
| 2026-05-05 10:39 | 35.33947 | 25.17061 | 86 ft | 4 kts | 137° |
| 2026-05-05 10:39 | 35.33938 | 25.17123 | 86 ft | 9 kts | 93° |
| 2026-05-05 10:39 | 35.33933 | 25.17210 | 86 ft | 11 kts | 94° |
| 2026-05-05 10:39 | 35.33925 | 25.17313 | 89 ft | 13 kts | 95° |
| 2026-05-05 10:40 | 35.33917 | 25.17434 | 87 ft | 15 kts | 95° |
| 2026-05-05 10:40 | 35.33907 | 25.17573 | 88 ft | 17 kts | 95° |
| 2026-05-05 10:40 | 35.33896 | 25.17728 | 90 ft | 19 kts | 95° |
| 2026-05-05 10:40 | 35.33886 | 25.17898 | 88 ft | 21 kts | 94° |
| 2026-05-05 10:41 | 35.33872 | 25.18087 | 88 ft | 23 kts | 94° |
| 2026-05-05 10:41 | 35.33859 | 25.18283 | 92 ft | 24 kts | 95° |
| 2026-05-05 10:41 | 35.33844 | 25.18497 | 87 ft | 26 kts | 95° |
| 2026-05-05 10:41 | 35.33834 | 25.18634 | 87 ft | 14 kts | 99° |
| 2026-05-05 10:42 | 35.33744 | 25.18743 | 90 ft | 0 kts | 184° |